sensor_id;sensor_type;location;lat;lon;timestamp;temperature;humidity
26503;DHT22;14177;51.520;6.764;2022-09-03T05:47:46;16.00;64.30
26503;DHT22;14177;51.520;6.764;2022-09-03T05:50:13;16.10;64.30
26503;DHT22;14177;51.520;6.764;2022-09-03T05:52:40;16.20;64.70
26503;DHT22;14177;51.520;6.764;2022-09-03T05:55:07;16.20;64.70
26503;DHT22;14177;51.520;6.764;2022-09-03T05:57:38;16.30;64.70
26503;DHT22;14177;51.520;6.764;2022-09-03T06:00:07;16.40;65.00
26503;DHT22;14177;51.520;6.764;2022-09-03T06:02:37;16.40;64.70
26503;DHT22;14177;51.520;6.764;2022-09-03T06:05:04;16.50;64.60
26503;DHT22;14177;51.520;6.764;2022-09-03T06:07:31;16.50;64.30
26503;DHT22;14177;51.520;6.764;2022-09-03T06:09:58;16.60;64.40
26503;DHT22;14177;51.520;6.764;2022-09-03T06:12:25;16.70;64.10
26503;DHT22;14177;51.520;6.764;2022-09-03T06:14:51;16.80;64.10
26503;DHT22;14177;51.520;6.764;2022-09-03T06:17:18;16.80;64.00
26503;DHT22;14177;51.520;6.764;2022-09-03T06:19:45;16.90;63.90
26503;DHT22;14177;51.520;6.764;2022-09-03T06:22:12;17.00;63.70
26503;DHT22;14177;51.520;6.764;2022-09-03T06:29:37;17.10;63.20
26503;DHT22;14177;51.520;6.764;2022-09-03T07:20:23;19.50;57.80
26503;DHT22;14177;51.520;6.764;2022-09-03T07:22:55;19.70;57.30
26503;DHT22;14177;51.520;6.764;2022-09-03T07:25:25;19.80;57.10
26503;DHT22;14177;51.520;6.764;2022-09-03T07:27:53;19.90;57.00
26503;DHT22;14177;51.520;6.764;2022-09-03T07:34:21;20.30;56.10
26503;DHT22;14177;51.520;6.764;2022-09-03T07:36:55;20.50;55.60
26503;DHT22;14177;51.520;6.764;2022-09-03T07:39:23;20.70;55.10
26503;DHT22;14177;51.520;6.764;2022-09-03T07:52:39;21.70;53.40
26503;DHT22;14177;51.520;6.764;2022-09-03T07:55:10;22.00;51.90
26503;DHT22;14177;51.520;6.764;2022-09-03T07:57:37;22.30;51.00
26503;DHT22;14177;51.520;6.764;2022-09-03T08:00:16;22.50;51.40
26503;DHT22;14177;51.520;6.764;2022-09-03T08:02:57;22.60;50.30
26503;DHT22;14177;51.520;6.764;2022-09-03T08:05:39;22.80;49.60
26503;DHT22;14177;51.520;6.764;2022-09-03T08:08:26;23.00;49.70
26503;DHT22;14177;51.520;6.764;2022-09-03T08:11:08;23.10;49.40
26503;DHT22;14177;51.520;6.764;2022-09-03T08:13:57;23.40;49.20
26503;DHT22;14177;51.520;6.764;2022-09-03T08:16:33;23.60;48.80
26503;DHT22;14177;51.520;6.764;2022-09-03T08:19:03;23.80;47.90
26503;DHT22;14177;51.520;6.764;2022-09-03T08:21:32;24.00;48.00
26503;DHT22;14177;51.520;6.764;2022-09-03T08:23:59;24.20;47.80
26503;DHT22;14177;51.520;6.764;2022-09-03T08:26:35;24.50;47.00
26503;DHT22;14177;51.520;6.764;2022-09-03T08:29:19;24.60;46.50
26503;DHT22;14177;51.520;6.764;2022-09-03T08:32:14;24.90;45.90
26503;DHT22;14177;51.520;6.764;2022-09-03T08:36:26;25.10;46.10
26503;DHT22;14177;51.520;6.764;2022-09-03T08:45:23;25.80;45.00
26503;DHT22;14177;51.520;6.764;2022-09-03T08:48:12;25.80;44.50
26503;DHT22;14177;51.520;6.764;2022-09-03T08:50:50;25.90;44.70
26503;DHT22;14177;51.520;6.764;2022-09-03T08:53:51;26.10;44.20
26503;DHT22;14177;51.520;6.764;2022-09-03T08:56:27;26.30;43.20
26503;DHT22;14177;51.520;6.764;2022-09-03T08:58:57;26.50;43.50
26503;DHT22;14177;51.520;6.764;2022-09-03T09:01:56;26.70;43.50
26503;DHT22;14177;51.520;6.764;2022-09-03T09:05:06;26.80;42.80
26503;DHT22;14177;51.520;6.764;2022-09-03T09:08:17;26.80;42.40
26503;DHT22;14177;51.520;6.764;2022-09-03T09:11:07;26.80;43.50
26503;DHT22;14177;51.520;6.764;2022-09-03T09:13:48;26.90;43.00
26503;DHT22;14177;51.520;6.764;2022-09-03T09:16:39;27.10;43.10
26503;DHT22;14177;51.520;6.764;2022-09-03T09:19:50;27.50;42.50
26503;DHT22;14177;51.520;6.764;2022-09-03T09:25:05;28.00;41.60
26503;DHT22;14177;51.520;6.764;2022-09-03T09:28:00;28.10;41.50
26503;DHT22;14177;51.520;6.764;2022-09-03T09:30:31;28.40;41.20
26503;DHT22;14177;51.520;6.764;2022-09-03T09:32:58;28.70;40.80
26503;DHT22;14177;51.520;6.764;2022-09-03T09:35:26;29.00;40.60
26503;DHT22;14177;51.520;6.764;2022-09-03T09:37:55;29.10;40.00
26503;DHT22;14177;51.520;6.764;2022-09-03T09:40:35;29.10;40.00
26503;DHT22;14177;51.520;6.764;2022-09-03T09:43:16;29.20;39.00
26503;DHT22;14177;51.520;6.764;2022-09-03T09:45:48;29.20;39.40
26503;DHT22;14177;51.520;6.764;2022-09-03T09:50:49;29.00;39.00
26503;DHT22;14177;51.520;6.764;2022-09-03T09:53:29;29.00;39.10
26503;DHT22;14177;51.520;6.764;2022-09-03T09:55:57;29.00;39.10
26503;DHT22;14177;51.520;6.764;2022-09-03T09:58:26;29.20;39.50
26503;DHT22;14177;51.520;6.764;2022-09-03T10:01:02;29.50;38.80
26503;DHT22;14177;51.520;6.764;2022-09-03T10:03:53;29.50;38.50
26503;DHT22;14177;51.520;6.764;2022-09-03T10:06:28;29.60;38.20
26503;DHT22;14177;51.520;6.764;2022-09-03T10:09:17;29.80;38.60
26503;DHT22;14177;51.520;6.764;2022-09-03T10:12:25;29.80;38.40
26503;DHT22;14177;51.520;6.764;2022-09-03T10:14:57;29.60;38.00
26503;DHT22;14177;51.520;6.764;2022-09-03T10:23:16;29.80;38.10
26503;DHT22;14177;51.520;6.764;2022-09-03T10:28:40;29.40;38.50
26503;DHT22;14177;51.520;6.764;2022-09-03T10:40:20;29.60;38.50
26503;DHT22;14177;51.520;6.764;2022-09-03T10:45:48;30.00;38.70
26503;DHT22;14177;51.520;6.764;2022-09-03T10:49:03;30.30;39.10
26503;DHT22;14177;51.520;6.764;2022-09-03T10:52:39;30.40;39.00
26503;DHT22;14177;51.520;6.764;2022-09-03T11:01:42;31.00;39.10
26503;DHT22;14177;51.520;6.764;2022-09-03T11:04:54;31.40;39.20
26503;DHT22;14177;51.520;6.764;2022-09-03T11:07:51;31.70;38.00
26503;DHT22;14177;51.520;6.764;2022-09-03T11:10:34;31.70;38.00
26503;DHT22;14177;51.520;6.764;2022-09-03T11:13:16;31.50;38.30
26503;DHT22;14177;51.520;6.764;2022-09-03T11:18:40;31.40;38.80
26503;DHT22;14177;51.520;6.764;2022-09-03T11:21:17;31.10;39.50
26503;DHT22;14177;51.520;6.764;2022-09-03T11:24:00;30.90;39.40
26503;DHT22;14177;51.520;6.764;2022-09-03T11:27:01;30.70;40.00
26503;DHT22;14177;51.520;6.764;2022-09-03T11:30:14;30.50;40.10
26503;DHT22;14177;51.520;6.764;2022-09-03T11:33:12;30.60;40.10
26503;DHT22;14177;51.520;6.764;2022-09-03T11:36:00;30.50;40.10
26503;DHT22;14177;51.520;6.764;2022-09-03T11:38:28;30.60;40.50
26503;DHT22;14177;51.520;6.764;2022-09-03T11:41:02;30.90;40.30
26503;DHT22;14177;51.520;6.764;2022-09-03T11:43:41;31.20;39.90
26503;DHT22;14177;51.520;6.764;2022-09-03T11:48:50;31.30;40.20
26503;DHT22;14177;51.520;6.764;2022-09-03T11:55:52;31.00;41.30
26503;DHT22;14177;51.520;6.764;2022-09-03T12:01:59;30.70;41.30
26503;DHT22;14177;51.520;6.764;2022-09-03T12:07:28;30.80;40.90
26503;DHT22;14177;51.520;6.764;2022-09-03T12:10:16;30.80;40.70
26503;DHT22;14177;51.520;6.764;2022-09-03T12:22:18;32.00;40.10
26503;DHT22;14177;51.520;6.764;2022-09-03T12:24:48;32.00;39.90
26503;DHT22;14177;51.520;6.764;2022-09-03T12:27:22;31.80;39.90
26503;DHT22;14177;51.520;6.764;2022-09-03T12:30:13;31.70;40.10
26503;DHT22;14177;51.520;6.764;2022-09-03T12:32:45;31.80;39.60
26503;DHT22;14177;51.520;6.764;2022-09-03T12:35:59;31.70;39.80
26503;DHT22;14177;51.520;6.764;2022-09-03T12:39:27;31.70;39.80
26503;DHT22;14177;51.520;6.764;2022-09-03T12:42:38;32.00;39.40
26503;DHT22;14177;51.520;6.764;2022-09-03T12:45:25;31.80;39.40
26503;DHT22;14177;51.520;6.764;2022-09-03T12:48:19;31.70;39.50
26503;DHT22;14177;51.520;6.764;2022-09-03T12:51:06;32.00;38.90
26503;DHT22;14177;51.520;6.764;2022-09-03T12:54:17;32.10;39.10
26503;DHT22;14177;51.520;6.764;2022-09-03T12:58:07;32.50;38.80
26503;DHT22;14177;51.520;6.764;2022-09-03T13:10:23;33.10;37.50
26503;DHT22;14177;51.520;6.764;2022-09-03T13:47:00;32.40;37.60
26503;DHT22;14177;51.520;6.764;2022-09-03T14:00:41;32.30;37.50
26503;DHT22;14177;51.520;6.764;2022-09-03T14:15:19;32.70;37.40
26503;DHT22;14177;51.520;6.764;2022-09-03T14:21:08;32.00;38.40
26503;DHT22;14177;51.520;6.764;2022-09-03T14:26:55;31.60;39.00
26503;DHT22;14177;51.520;6.764;2022-09-03T16:10:19;28.60;44.30
26503;DHT22;14177;51.520;6.764;2022-09-03T16:29:00;29.40;43.80
26503;DHT22;14177;51.520;6.764;2022-09-03T16:58:17;28.90;44.80
26503;DHT22;14177;51.520;6.764;2022-09-03T17:12:52;28.60;45.50
26503;DHT22;14177;51.520;6.764;2022-09-03T17:15:48;28.60;45.50
26503;DHT22;14177;51.520;6.764;2022-09-03T17:18:33;28.50;45.70
26503;DHT22;14177;51.520;6.764;2022-09-03T17:21:17;28.40;45.80
26503;DHT22;14177;51.520;6.764;2022-09-03T17:24:22;28.20;46.00
26503;DHT22;14177;51.520;6.764;2022-09-03T17:30:27;27.90;46.30
26503;DHT22;14177;51.520;6.764;2022-09-03T17:36:14;27.70;46.70
26503;DHT22;14177;51.520;6.764;2022-09-03T17:39:10;27.50;47.80
26503;DHT22;14177;51.520;6.764;2022-09-03T17:41:51;27.30;49.10
26503;DHT22;14177;51.520;6.764;2022-09-03T17:44:49;27.00;49.30
26503;DHT22;14177;51.520;6.764;2022-09-03T17:47:59;26.80;49.90
26503;DHT22;14177;51.520;6.764;2022-09-03T17:50:56;26.70;50.50
26503;DHT22;14177;51.520;6.764;2022-09-03T17:53:39;26.50;51.10
26503;DHT22;14177;51.520;6.764;2022-09-03T17:56:41;26.40;52.10
26503;DHT22;14177;51.520;6.764;2022-09-03T17:59:34;26.20;52.60
26503;DHT22;14177;51.520;6.764;2022-09-03T18:02:21;26.10;53.70
26503;DHT22;14177;51.520;6.764;2022-09-03T18:05:23;26.00;54.30
26503;DHT22;14177;51.520;6.764;2022-09-03T18:08:10;25.90;55.10
26503;DHT22;14177;51.520;6.764;2022-09-03T18:11:13;25.80;55.30
26503;DHT22;14177;51.520;6.764;2022-09-03T18:14:10;25.80;55.60
26503;DHT22;14177;51.520;6.764;2022-09-03T18:16:58;25.70;56.10
26503;DHT22;14177;51.520;6.764;2022-09-03T18:23:00;25.60;56.80
26503;DHT22;14177;51.520;6.764;2022-09-03T18:25:53;25.40;57.30
26503;DHT22;14177;51.520;6.764;2022-09-03T18:28:49;25.40;58.20
26503;DHT22;14177;51.520;6.764;2022-09-03T18:31:44;25.40;57.80
26503;DHT22;14177;51.520;6.764;2022-09-03T18:34:36;25.40;58.10
26503;DHT22;14177;51.520;6.764;2022-09-03T18:37:28;25.30;58.30
26503;DHT22;14177;51.520;6.764;2022-09-03T19:00:01;24.90;60.30
26503;DHT22;14177;51.520;6.764;2022-09-03T19:03:28;24.60;61.60
26503;DHT22;14177;51.520;6.764;2022-09-03T19:07:06;24.50;62.10
26503;DHT22;14177;51.520;6.764;2022-09-03T19:10:13;24.40;62.40
26503;DHT22;14177;51.520;6.764;2022-09-03T19:13:34;24.30;63.30
26503;DHT22;14177;51.520;6.764;2022-09-03T19:22:55;24.00;65.00
26503;DHT22;14177;51.520;6.764;2022-09-03T19:25:40;24.00;65.40
26503;DHT22;14177;51.520;6.764;2022-09-03T19:28:39;23.90;65.80
26503;DHT22;14177;51.520;6.764;2022-09-03T19:34:51;23.70;67.40
26503;DHT22;14177;51.520;6.764;2022-09-03T19:41:29;23.40;67.90
26503;DHT22;14177;51.520;6.764;2022-09-03T19:44:24;23.30;68.60
26503;DHT22;14177;51.520;6.764;2022-09-03T19:47:24;23.30;68.90
26503;DHT22;14177;51.520;6.764;2022-09-03T19:50:22;23.30;69.00
26503;DHT22;14177;51.520;6.764;2022-09-03T19:53:17;23.20;69.20
26503;DHT22;14177;51.520;6.764;2022-09-03T19:56:17;23.10;69.50
26503;DHT22;14177;51.520;6.764;2022-09-03T19:59:12;23.10;69.90
26503;DHT22;14177;51.520;6.764;2022-09-03T20:02:05;23.00;70.20
26503;DHT22;14177;51.520;6.764;2022-09-03T20:04:57;23.00;70.30
26503;DHT22;14177;51.520;6.764;2022-09-03T20:07:46;23.00;70.20
26503;DHT22;14177;51.520;6.764;2022-09-03T20:10:36;23.00;70.50
